createdAt,value
2022-11-18T00:01:32.151Z,29.90
2022-11-18T00:04:00.836Z,31.30
2022-11-18T00:06:30.725Z,29.20
2022-11-18T00:09:00.543Z,30.00
2022-11-18T00:11:47.484Z,31.70
2022-11-18T00:14:19.612Z,30.60
2022-11-18T00:16:52.403Z,32.30
2022-11-18T00:19:27.556Z,32.00
2022-11-18T00:24:24.349Z,33.00
2022-11-18T00:26:53.556Z,30.10
2022-11-18T00:29:22.775Z,29.00
2022-11-18T00:31:51.192Z,34.40
2022-11-18T00:34:19.626Z,32.20
2022-11-18T00:36:48.966Z,27.60
2022-11-18T00:39:20.265Z,31.50
2022-11-18T00:42:07.592Z,30.70
2022-11-18T00:44:36.241Z,34.60
2022-11-18T00:47:05.202Z,26.40
2022-11-18T00:49:33.515Z,25.80
2022-11-18T00:52:02.125Z,27.60
2022-11-18T00:54:30.484Z,24.80
2022-11-18T00:56:58.889Z,27.00
2022-11-18T00:59:27.283Z,28.30
2022-11-18T01:01:55.726Z,26.00
2022-11-18T01:04:24.084Z,27.20
2022-11-18T01:06:52.548Z,25.60
2022-11-18T01:09:20.914Z,27.50
2022-11-18T01:12:07.767Z,28.80
2022-11-18T01:14:36.169Z,26.10
2022-11-18T01:17:04.493Z,28.60
2022-11-18T01:19:33.155Z,28.20
2022-11-18T01:22:03.398Z,25.10
2022-11-18T01:24:34.884Z,27.00
2022-11-18T01:27:03.545Z,28.90
2022-11-18T01:29:31.895Z,29.70
2022-11-18T01:34:48.791Z,26.80
2022-11-18T01:37:17.209Z,26.30
2022-11-18T01:39:45.479Z,28.40
2022-11-18T01:42:18.228Z,22.50
2022-11-18T01:44:56.073Z,30.30
2022-11-18T01:47:27.782Z,29.00
2022-11-18T01:49:56.725Z,26.50
2022-11-18T01:52:25.485Z,28.60
2022-11-18T01:54:57.842Z,31.30
2022-11-18T01:57:27.863Z,27.50
2022-11-18T02:00:04.069Z,28.40
2022-11-18T02:02:35.257Z,32.40
2022-11-18T02:05:05.915Z,28.40
2022-11-18T02:07:39.280Z,28.20
2022-11-18T02:10:08.794Z,27.40
2022-11-18T02:12:37.739Z,30.40
2022-11-18T02:15:06.891Z,35.50
2022-11-18T02:17:41.367Z,31.90
2022-11-18T02:20:09.908Z,30.40
2022-11-18T02:22:53.287Z,30.90
2022-11-18T02:25:24.517Z,27.50
2022-11-18T02:28:37.889Z,33.40
2022-11-18T02:31:18.927Z,28.80
2022-11-18T02:33:55.801Z,27.60
2022-11-18T02:36:55.441Z,32.60
2022-11-18T02:39:32.945Z,30.70
2022-11-18T02:42:06.794Z,27.60
2022-11-18T02:44:37.682Z,32.70
2022-11-18T02:47:10.808Z,30.40
2022-11-18T02:49:47.163Z,30.80
2022-11-18T02:52:17.704Z,29.00
2022-11-18T02:54:48.938Z,31.10
2022-11-18T02:57:20.049Z,30.60
2022-11-18T02:59:48.789Z,30.40
2022-11-18T03:02:19.652Z,28.20
2022-11-18T03:04:51.811Z,27.00
2022-11-18T03:07:30.135Z,29.60
2022-11-18T03:10:00.773Z,35.40
2022-11-18T03:12:59.656Z,30.00
2022-11-18T03:15:39.920Z,27.30
2022-11-18T03:18:28.835Z,29.30
2022-11-18T03:21:11.795Z,29.20
2022-11-18T03:24:08.350Z,29.30
2022-11-18T03:26:40.825Z,28.90
2022-11-18T03:29:16.075Z,29.00
2022-11-18T03:31:52.740Z,32.50
2022-11-18T03:34:27.706Z,29.30
2022-11-18T03:39:40.180Z,25.70
2022-11-18T03:42:35.552Z,30.50
2022-11-18T03:45:16.474Z,28.30
2022-11-18T03:47:53.120Z,29.40
2022-11-18T03:50:30.803Z,29.70
2022-11-18T03:53:01.789Z,30.20
2022-11-18T03:55:36.861Z,33.50
2022-11-18T04:00:46.209Z,31.90
2022-11-18T04:03:14.884Z,29.50
2022-11-18T04:05:44.267Z,39.10
2022-11-18T04:08:22.778Z,36.10
2022-11-18T04:11:35.818Z,34.10
2022-11-18T04:14:09.441Z,34.50
2022-11-18T04:16:42.480Z,35.90
2022-11-18T04:19:11.166Z,27.80
2022-11-18T04:21:39.524Z,30.40
2022-11-18T04:24:08.128Z,32.50
2022-11-18T04:26:36.434Z,32.80
2022-11-18T04:29:04.836Z,33.00
2022-11-18T04:31:33.294Z,35.80
2022-11-18T04:34:01.653Z,33.60
2022-11-18T04:36:30.011Z,35.00
2022-11-18T04:38:58.320Z,29.40
2022-11-18T04:41:46.646Z,31.90
2022-11-18T04:44:15.003Z,34.20
2022-11-18T04:46:44.335Z,33.00
2022-11-18T04:49:15.232Z,36.30
2022-11-18T04:51:44.311Z,32.50
2022-11-18T04:54:13.521Z,35.70
2022-11-18T04:56:47.475Z,33.90
2022-11-18T04:59:21.030Z,37.40
2022-11-18T05:01:49.901Z,31.50
2022-11-18T05:04:21.757Z,32.60
2022-11-18T05:06:51.731Z,30.50
2022-11-18T05:09:20.732Z,28.80
2022-11-18T05:12:07.867Z,30.60
2022-11-18T05:14:36.320Z,38.50
2022-11-18T05:17:06.854Z,31.00
2022-11-18T05:19:38.394Z,32.70
2022-11-18T05:22:07.747Z,31.20
2022-11-18T05:24:36.059Z,34.00
2022-11-18T05:27:04.403Z,35.60
2022-11-18T05:29:33.778Z,35.80
2022-11-18T05:32:02.051Z,34.40
2022-11-18T05:34:30.434Z,34.20
2022-11-18T05:36:58.846Z,34.50
2022-11-18T05:39:27.200Z,36.70
2022-11-18T05:42:14.215Z,39.10
2022-11-18T05:44:42.610Z,33.20
2022-11-18T05:47:11.048Z,35.50
2022-11-18T05:49:39.412Z,35.50
2022-11-18T05:52:07.863Z,36.50
2022-11-18T05:54:42.301Z,38.10
2022-11-18T05:57:10.704Z,37.70
2022-11-18T05:59:38.990Z,36.90
2022-11-18T06:02:14.546Z,34.30
2022-11-18T06:04:51.037Z,34.00
2022-11-18T06:07:27.764Z,30.60
2022-11-18T06:10:04.723Z,31.00
2022-11-18T06:12:43.769Z,30.30
2022-11-18T06:15:20.450Z,35.80
2022-11-18T06:18:23.423Z,37.00
2022-11-18T06:20:54.868Z,32.50
2022-11-18T06:23:23.777Z,32.80
2022-11-18T06:25:52.884Z,32.70
2022-11-18T06:28:22.859Z,41.20
2022-11-18T06:30:51.117Z,31.90
2022-11-18T06:33:19.563Z,30.10
2022-11-18T06:35:47.985Z,30.10
2022-11-18T06:38:16.307Z,27.60
2022-11-18T06:40:44.933Z,28.60
2022-11-18T06:43:32.014Z,31.20
2022-11-18T06:46:19.727Z,28.10
2022-11-18T06:48:48.492Z,28.90
2022-11-18T06:51:17.308Z,26.50
2022-11-18T06:53:46.245Z,28.90
2022-11-18T06:56:16.581Z,32.30
2022-11-18T06:58:45.737Z,29.90
2022-11-18T07:01:28.947Z,32.90
2022-11-18T07:04:01.395Z,34.60
2022-11-18T07:06:32.384Z,32.40
2022-11-18T07:09:06.559Z,33.50
2022-11-18T07:11:46.473Z,31.90
2022-11-18T07:14:14.893Z,35.40
2022-11-18T07:16:43.512Z,32.00
2022-11-18T07:19:19.439Z,32.70
2022-11-18T07:21:56.560Z,31.30
2022-11-18T07:24:24.964Z,31.20
2022-11-18T07:26:57.324Z,29.60
2022-11-18T07:29:25.886Z,27.80
2022-11-18T07:31:54.437Z,27.70
2022-11-18T07:34:36.321Z,29.30
2022-11-18T07:37:15.671Z,28.10
2022-11-18T07:39:44.491Z,28.10
2022-11-18T07:42:13.258Z,32.50
2022-11-18T07:44:42.169Z,28.40
2022-11-18T07:47:11.042Z,29.10
2022-11-18T07:49:40.138Z,28.10
2022-11-18T07:52:08.521Z,31.40
2022-11-18T07:54:40.142Z,33.40
2022-11-18T07:57:40.395Z,27.50
2022-11-18T08:00:17.624Z,24.70
2022-11-18T08:02:53.281Z,26.30
2022-11-18T08:05:22.262Z,26.70
2022-11-18T08:07:56.815Z,25.00
2022-11-18T08:10:25.216Z,27.60
2022-11-18T08:12:53.551Z,26.80
2022-11-18T08:15:21.804Z,25.00
2022-11-18T08:17:50.393Z,24.20
2022-11-18T08:20:18.928Z,27.90
2022-11-18T08:22:47.312Z,28.10
2022-11-18T08:25:15.732Z,26.90
2022-11-18T08:27:44.218Z,26.10
2022-11-18T08:30:13.235Z,26.10
2022-11-18T08:32:47.804Z,27.60
2022-11-18T08:35:16.132Z,26.40
2022-11-18T08:37:44.602Z,25.10
2022-11-18T08:40:13.537Z,27.00
2022-11-18T08:42:41.983Z,25.70
2022-11-18T08:45:13.371Z,25.20
2022-11-18T08:47:41.964Z,25.00
2022-11-18T08:50:12.476Z,24.00
2022-11-18T08:52:40.995Z,23.30
2022-11-18T08:55:09.539Z,23.40
2022-11-18T08:57:40.247Z,26.80
2022-11-18T09:00:11.676Z,23.60
2022-11-18T09:02:40.679Z,22.20
2022-11-18T09:05:09.368Z,22.90
2022-11-18T09:07:40.433Z,20.70
2022-11-18T09:10:09.435Z,21.30
2022-11-18T09:12:37.816Z,21.10
2022-11-18T09:15:13.471Z,23.60
2022-11-18T09:17:42.515Z,21.10
2022-11-18T09:20:18.582Z,19.70
2022-11-18T09:22:46.977Z,18.70
2022-11-18T09:25:15.599Z,22.80
2022-11-18T09:27:43.926Z,21.00
2022-11-18T09:30:12.487Z,20.40
2022-11-18T09:32:40.827Z,21.70
2022-11-18T09:35:09.253Z,20.70
2022-11-18T09:37:37.656Z,23.50
2022-11-18T09:40:06.639Z,20.40
2022-11-18T09:42:41.028Z,26.90
2022-11-18T09:45:24.576Z,53.00
2022-11-18T09:47:58.727Z,68.70
2022-11-18T09:50:48.604Z,24.50
2022-11-18T09:53:44.965Z,20.50
2022-11-18T09:56:16.024Z,21.00
2022-11-18T09:58:45.505Z,24.70
2022-11-18T10:01:19.873Z,20.20
2022-11-18T10:03:48.584Z,19.30
2022-11-18T10:06:23.867Z,21.70
2022-11-18T10:09:08.422Z,22.30
2022-11-18T10:11:51.984Z,29.70
2022-11-18T10:14:43.884Z,26.20
2022-11-18T10:17:30.781Z,27.00
2022-11-18T10:20:17.448Z,23.80
2022-11-18T10:22:55.304Z,31.10
2022-11-18T10:25:23.796Z,29.60
2022-11-18T10:27:52.619Z,29.20
2022-11-18T10:30:23.421Z,24.60
2022-11-18T10:33:04.131Z,26.80
2022-11-18T10:35:36.557Z,27.70
2022-11-18T10:38:17.426Z,23.30
2022-11-18T10:41:12.633Z,22.70
2022-11-18T10:44:15.111Z,23.00
2022-11-18T10:47:31.591Z,23.60
2022-11-18T10:50:35.620Z,20.30
2022-11-18T10:53:06.321Z,23.80
2022-11-18T10:55:34.708Z,24.10
2022-11-18T10:58:18.534Z,24.10
2022-11-18T11:00:49.481Z,23.20
2022-11-18T11:03:24.088Z,22.60
2022-11-18T11:06:18.212Z,24.70
2022-11-18T11:09:10.696Z,29.50
2022-11-18T11:12:13.256Z,26.50
2022-11-18T11:14:57.290Z,28.90
2022-11-18T11:17:37.641Z,23.50
2022-11-18T11:20:15.111Z,26.10
2022-11-18T11:22:44.671Z,22.90
2022-11-18T11:25:20.191Z,28.40
2022-11-18T11:30:55.375Z,33.30
2022-11-18T11:33:31.359Z,35.30
2022-11-18T11:36:02.907Z,28.40
2022-11-18T11:39:04.788Z,26.10
2022-11-18T11:41:45.007Z,26.00
2022-11-18T11:45:07.485Z,24.80
2022-11-18T11:48:10.896Z,33.20
2022-11-18T11:51:04.055Z,26.90
2022-11-18T11:54:05.917Z,28.50
2022-11-18T11:56:37.170Z,29.50
2022-11-18T11:59:56.558Z,27.90
2022-11-18T12:02:40.075Z,27.50
2022-11-18T12:05:43.536Z,30.90
2022-11-18T12:08:24.769Z,28.50
2022-11-18T12:11:05.619Z,31.50
2022-11-18T12:13:49.249Z,26.40
2022-11-18T12:16:47.838Z,33.30
2022-11-18T12:19:20.053Z,31.20
2022-11-18T12:21:53.716Z,32.10
2022-11-18T12:24:42.742Z,37.40
2022-11-18T12:27:20.319Z,34.80
2022-11-18T12:29:48.703Z,33.40
2022-11-18T12:32:26.102Z,33.70
2022-11-18T12:40:31.404Z,32.10
2022-11-18T12:43:47.328Z,37.20
2022-11-18T12:46:34.900Z,36.30
2022-11-18T12:49:21.974Z,39.00
2022-11-18T12:52:08.094Z,39.70
2022-11-18T12:54:48.757Z,37.50
2022-11-18T12:57:24.509Z,37.30
2022-11-18T12:59:53.316Z,41.10
2022-11-18T13:02:24.904Z,39.60
2022-11-18T13:05:20.047Z,38.40
2022-11-18T13:08:17.465Z,36.20
2022-11-18T13:10:54.900Z,39.40
2022-11-18T13:13:29.204Z,43.00
2022-11-18T13:16:23.082Z,42.20
2022-11-18T13:18:53.721Z,43.30
2022-11-18T13:21:46.926Z,45.00
2022-11-18T13:24:18.336Z,38.70
2022-11-18T13:26:59.527Z,41.40
2022-11-18T13:29:42.301Z,41.10
2022-11-18T13:32:29.598Z,39.00
2022-11-18T13:35:07.761Z,37.30
2022-11-18T13:37:51.051Z,40.00
2022-11-18T13:40:22.220Z,38.80
2022-11-18T13:42:51.530Z,42.70
2022-11-18T13:45:21.623Z,41.30
2022-11-18T13:47:55.605Z,43.30
2022-11-18T13:50:26.940Z,41.30
2022-11-18T13:53:17.850Z,36.90
2022-11-18T13:55:49.984Z,40.50
2022-11-18T13:58:18.337Z,47.90
2022-11-18T14:01:01.396Z,43.10
2022-11-18T14:03:39.699Z,40.60
2022-11-18T14:06:11.245Z,45.00
2022-11-18T14:08:40.287Z,43.90
2022-11-18T14:11:10.312Z,43.20
2022-11-18T14:13:59.931Z,46.80
2022-11-18T14:16:40.245Z,42.60
2022-11-18T14:19:30.593Z,54.50
2022-11-18T14:22:13.199Z,44.40
2022-11-18T14:24:42.670Z,46.80
2022-11-18T14:27:36.483Z,45.80
2022-11-18T14:30:23.680Z,45.30
2022-11-18T14:33:20.331Z,58.00
2022-11-18T14:36:10.899Z,47.80
2022-11-18T14:41:46.950Z,45.90
2022-11-18T14:44:15.750Z,52.90
2022-11-18T14:46:47.368Z,45.30
2022-11-18T14:49:19.824Z,48.50
2022-11-18T14:51:51.420Z,44.80
2022-11-18T14:54:26.324Z,42.80
2022-11-18T14:57:01.367Z,43.10
2022-11-18T14:59:30.420Z,44.80
2022-11-18T15:01:59.624Z,43.50
2022-11-18T15:04:28.188Z,50.50
2022-11-18T15:06:56.582Z,50.20
2022-11-18T15:09:25.083Z,48.50
2022-11-18T15:11:54.838Z,50.10
2022-11-18T15:14:23.243Z,50.50
2022-11-18T15:16:51.600Z,47.90
2022-11-18T15:19:19.941Z,52.40
2022-11-18T15:21:48.403Z,49.40
2022-11-18T15:24:16.940Z,50.80
2022-11-18T15:26:47.472Z,55.30
2022-11-18T15:29:23.979Z,49.40
2022-11-18T15:31:52.595Z,46.30
2022-11-18T15:34:21.613Z,51.10
2022-11-18T15:36:50.306Z,55.20
2022-11-18T15:39:18.751Z,53.10
2022-11-18T15:41:47.149Z,108.30
2022-11-18T15:44:16.237Z,99.00
2022-11-18T15:46:48.062Z,68.20
2022-11-18T15:49:18.062Z,62.20
2022-11-18T15:51:46.865Z,63.60
2022-11-18T15:54:15.374Z,146.30
2022-11-18T15:56:43.812Z,188.60
2022-11-18T15:59:14.310Z,68.40
2022-11-18T16:01:45.589Z,56.50
2022-11-18T16:04:16.795Z,75.70
2022-11-18T16:06:45.887Z,111.40
2022-11-18T16:09:16.085Z,119.90
2022-11-18T16:12:06.143Z,64.00
2022-11-18T16:14:38.184Z,65.80
2022-11-18T16:17:09.608Z,68.80
2022-11-18T16:19:38.199Z,82.90
2022-11-18T16:22:09.662Z,75.70
2022-11-18T16:24:38.263Z,111.80
2022-11-18T16:27:06.633Z,118.90
2022-11-18T16:29:35.291Z,135.00
2022-11-18T16:32:14.593Z,59.20
2022-11-18T16:34:42.958Z,61.30
2022-11-18T16:37:11.303Z,62.50
2022-11-18T16:39:42.024Z,61.20
2022-11-18T16:42:11.494Z,61.80
2022-11-18T16:44:40.060Z,58.70
2022-11-18T16:47:14.878Z,58.40
2022-11-18T16:49:44.157Z,61.50
2022-11-18T16:52:12.639Z,56.50
2022-11-18T16:54:45.358Z,55.20
2022-11-18T16:57:15.278Z,56.30
2022-11-18T16:59:43.786Z,62.90
2022-11-18T17:02:13.769Z,58.20
2022-11-18T17:04:42.831Z,63.00
2022-11-18T17:07:11.577Z,58.80
2022-11-18T17:09:39.975Z,63.50
2022-11-18T17:12:08.345Z,62.90
2022-11-18T17:14:38.474Z,59.80
2022-11-18T17:17:07.556Z,59.10
2022-11-18T17:19:39.025Z,61.90
2022-11-18T17:22:07.673Z,65.00
2022-11-18T17:24:36.099Z,62.70
2022-11-18T17:27:04.517Z,54.20
2022-11-18T17:29:33.097Z,62.60
2022-11-18T17:32:01.814Z,61.50
2022-11-18T17:34:30.326Z,58.90
2022-11-18T17:37:04.930Z,55.00
2022-11-18T17:39:35.499Z,63.70
2022-11-18T17:42:19.090Z,73.10
2022-11-18T17:44:56.824Z,68.80
2022-11-18T17:47:25.919Z,62.70
2022-11-18T17:49:54.451Z,67.20
2022-11-18T17:52:25.428Z,56.40
2022-11-18T17:54:53.857Z,57.70
2022-11-18T17:57:22.140Z,54.50
2022-11-18T17:59:51.472Z,54.50
2022-11-18T18:02:21.521Z,53.90
2022-11-18T18:04:49.944Z,82.50
2022-11-18T18:07:18.392Z,54.70
2022-11-18T18:09:46.787Z,58.10
2022-11-18T18:12:33.928Z,67.10
2022-11-18T18:15:02.257Z,179.90
2022-11-18T18:17:30.675Z,88.80
2022-11-18T18:19:59.157Z,55.20
2022-11-18T18:22:29.365Z,46.80
2022-11-18T18:25:00.464Z,52.30
2022-11-18T18:27:31.073Z,52.70
2022-11-18T18:30:02.517Z,52.30
2022-11-18T18:32:30.920Z,54.30
2022-11-18T18:35:00.146Z,49.80
2022-11-18T18:37:28.565Z,51.60
2022-11-18T18:39:57.008Z,55.90
2022-11-18T18:42:25.348Z,44.00
2022-11-18T18:45:12.257Z,44.50
2022-11-18T18:47:40.571Z,48.60
2022-11-18T18:50:09.248Z,50.50
2022-11-18T18:52:37.575Z,51.60
2022-11-18T18:55:06.788Z,54.60
2022-11-18T18:57:35.203Z,52.20
2022-11-18T19:00:04.927Z,48.40
2022-11-18T19:02:33.373Z,46.80
2022-11-18T19:05:01.993Z,53.80
2022-11-18T19:07:31.509Z,47.40
2022-11-18T19:10:00.083Z,53.80
2022-11-18T19:12:43.534Z,60.00
2022-11-18T19:15:13.995Z,54.60
2022-11-18T19:17:46.471Z,57.90
2022-11-18T19:20:33.621Z,53.70
2022-11-18T19:23:14.790Z,62.70
2022-11-18T19:25:46.714Z,71.00
2022-11-18T19:28:17.487Z,70.90
2022-11-18T19:30:47.868Z,72.00
2022-11-18T19:33:16.309Z,75.20
2022-11-18T19:35:44.748Z,72.20
2022-11-18T19:38:15.494Z,65.50
2022-11-18T19:40:44.066Z,63.40
2022-11-18T19:43:12.433Z,60.10
2022-11-18T19:45:40.784Z,60.10
2022-11-18T19:48:12.092Z,56.30
2022-11-18T19:50:40.540Z,56.10
2022-11-18T19:53:28.897Z,57.70
2022-11-18T19:56:04.397Z,53.30
2022-11-18T19:58:34.796Z,58.40
2022-11-18T20:01:16.707Z,50.60
2022-11-18T20:03:47.692Z,55.70
2022-11-18T20:06:17.827Z,52.50
2022-11-18T20:08:47.805Z,52.20
2022-11-18T20:11:18.267Z,49.20
2022-11-18T20:13:47.208Z,51.00
2022-11-18T20:16:25.124Z,55.50
2022-11-18T20:18:59.314Z,50.70
2022-11-18T20:21:29.191Z,58.10
2022-11-18T20:23:59.887Z,65.30
2022-11-18T20:26:37.535Z,55.90
2022-11-18T20:29:07.307Z,58.90
2022-11-18T20:31:37.356Z,70.20
2022-11-18T20:34:05.865Z,58.90
2022-11-18T20:36:36.690Z,59.70
2022-11-18T20:39:07.506Z,58.00
2022-11-18T20:41:36.628Z,53.00
2022-11-18T20:44:08.753Z,49.10
2022-11-18T20:46:38.145Z,53.10
2022-11-18T20:49:06.519Z,51.40
2022-11-18T20:51:34.896Z,48.20
2022-11-18T20:54:08.231Z,50.60
2022-11-18T20:56:37.017Z,51.50
2022-11-18T20:59:05.545Z,53.70
2022-11-18T21:01:34.141Z,51.40
2022-11-18T21:04:03.678Z,53.30
2022-11-18T21:06:33.617Z,43.40
2022-11-18T21:09:04.832Z,52.70
2022-11-18T21:11:35.179Z,51.60
2022-11-18T21:14:24.577Z,43.40
2022-11-18T21:16:55.563Z,42.90
2022-11-18T21:19:26.197Z,39.90
2022-11-18T21:21:56.713Z,42.80
2022-11-18T21:24:30.609Z,39.20
2022-11-18T21:27:00.484Z,42.20
2022-11-18T21:29:31.304Z,45.10
2022-11-18T21:32:04.020Z,44.30
2022-11-18T21:34:32.410Z,42.30
2022-11-18T21:37:00.919Z,43.10
2022-11-18T21:39:29.392Z,44.90
2022-11-18T21:41:59.646Z,43.50
2022-11-18T21:44:28.635Z,42.80
2022-11-18T21:46:57.701Z,41.50
2022-11-18T21:49:26.260Z,39.50
2022-11-18T21:51:54.647Z,43.90
2022-11-18T21:54:23.052Z,34.70
2022-11-18T21:56:51.373Z,35.50
2022-11-18T21:59:19.960Z,37.60
2022-11-18T22:01:48.459Z,35.00
2022-11-18T22:04:36.772Z,37.10
2022-11-18T22:07:05.947Z,32.50
2022-11-18T22:09:36.648Z,35.00
2022-11-18T22:12:06.893Z,32.60
2022-11-18T22:14:36.248Z,34.10
2022-11-18T22:17:05.095Z,33.40
2022-11-18T22:19:33.948Z,32.80
2022-11-18T22:22:02.311Z,32.70
2022-11-18T22:24:30.739Z,33.10
2022-11-18T22:26:59.278Z,33.30
2022-11-18T22:29:27.639Z,35.20
2022-11-18T22:31:56.039Z,31.70
2022-11-18T22:34:24.437Z,36.90
2022-11-18T22:36:52.831Z,35.80
2022-11-18T22:39:21.548Z,33.50
2022-11-18T22:42:08.776Z,35.40
2022-11-18T22:44:37.212Z,32.00
2022-11-18T22:47:05.712Z,38.00
2022-11-18T22:49:34.063Z,35.90
2022-11-18T22:52:02.416Z,34.90
2022-11-18T22:54:38.840Z,39.10
2022-11-18T22:57:08.969Z,48.70
2022-11-18T22:59:37.403Z,53.60
2022-11-18T23:02:05.715Z,46.80
2022-11-18T23:04:34.213Z,43.60
2022-11-18T23:07:02.544Z,44.80
2022-11-18T23:09:30.782Z,48.60
2022-11-18T23:12:17.435Z,51.50
2022-11-18T23:14:46.020Z,51.80
2022-11-18T23:17:15.817Z,55.50
2022-11-18T23:19:44.256Z,43.70
2022-11-18T23:22:13.106Z,45.30
2022-11-18T23:24:41.318Z,46.10
2022-11-18T23:27:09.450Z,48.60
2022-11-18T23:29:37.789Z,48.90
2022-11-18T23:32:05.964Z,47.70
2022-11-18T23:34:34.104Z,45.80
2022-11-18T23:37:02.239Z,45.80
2022-11-18T23:39:30.376Z,46.50
2022-11-18T23:41:58.479Z,56.50
2022-11-18T23:44:45.057Z,47.90
2022-11-18T23:47:13.565Z,47.20
2022-11-18T23:49:41.774Z,47.10
2022-11-18T23:52:09.923Z,46.20
2022-11-18T23:54:38.098Z,58.50
2022-11-18T23:57:06.348Z,44.00
2022-11-18T23:59:34.499Z,43.70
